Pagrindinis puslapis
METAR-TAF:

METAR-TAF

Oro uostai :

Kišiniovas, Moldavija

platuma: 46-55-40N, ilguma: 028-55-51E, Aukštis: 122 m

Dabartinis oras

Ataskaita buvo paskelbta 14 minutes, ne 15:00 UTC
Vėjas 12 kt iš Šiaurės/Šiaurės Vakarų
Temperatūra 19°C
Drėgmė 22%
Slėgis 1004 hPa
Matomumas 10 km arba daugiau
nėra debesų žemiau 1500 m ir nėra kamuolinių lietaus debesų

METAR: LUKK 291500Z 34012KT CAVOK 19/M03 Q1004 R08/CLRD// NOSIG

Laikas: 18:14 (15:14 UTC)

Prognozė

Ataskaita buvo paskelbta 3 valandos ir 54 minutes, ne 11:20 UTC
Prognozė galioja nuo 29 metu 12 UTC su 30 metu 12 UTC
Vėjas 12 kt iš Šiaurės/Šiaurės Vakarų
Matomumas 10 km arba daugiau
nėra debesų žemiau 1500 m ir nėra kamuolinių lietaus debesų
Tapsmas
nuo 29 metu 15 UTC su 29 metu 17 UTC
Vėjas 6 kt iš Vakarų
Tapsmas
nuo 30 metu 06 UTC su 30 metu 08 UTC
Vėjas 12 kt iš Šiaurės Vakarų

TAF: LUKK 291120Z 2912/3012 33012KT CAVOK BECMG 2915/2917 28006KT BECMG 3006/3008 32012KT

Orai ataskaitas ir orų prognozės (METAR, TAF).

turimą stotys yra geltonos ir raudonos taškus žemėlapyje.

Perkelti pele per norėdami pamatyti stoties vardą.

Tada spustelėkite, norėdami matyti oro stebėjimo ir prognozės.

Norėdami pakeisti žemėlapį: spustelėkite ant žalios mygtukų su juodo kryžiaus žemyn,; žalią mygtuką su brūkšneliu, jei norite nutolinti; arba žalių rodyklių gretimoms žemėlapius.


METAR-TAF: